Time;durP1;ratioP1;P1;durP2;ratioP2;P2;SDS_P1;SDS_P2;PMS_P1;PMS_P2;Temp;Humidity;BMP_temperature;BMP_pressure;BME280_temperature;BME280_humidity;BME280_pressure;Samples;Min_cycle;Max_cycle;Signal;HPM_P1;HPM_P2
2022/01/22 00:01:39;;;;;;;2.58;0.80;;;9.30;81.00;;;;;;5071084;28;20524;-55
2022/01/22 00:04:04;;;;;;;1.95;0.77;;;9.40;81.00;;;;;;5071840;28;20052;-54
2022/01/22 00:06:30;;;;;;;1.20;0.60;;;9.40;81.00;;;;;;5071713;28;20052;-55
2022/01/22 00:08:55;;;;;;;1.60;0.88;;;9.30;80.90;;;;;;5071925;28;20433;-54
2022/01/22 00:11:21;;;;;;;0.88;0.55;;;9.40;80.90;;;;;;5071316;28;20044;-55
2022/01/22 00:16:31;;;;;;;0.70;0.63;;;9.30;80.90;;;;;;5071572;28;20488;-56
2022/01/22 00:18:57;;;;;;;1.77;0.73;;;9.40;81.00;;;;;;5071712;28;20063;-55
2022/01/22 00:21:22;;;;;;;1.73;0.88;;;9.30;80.90;;;;;;5071245;28;20040;-55
2022/01/22 00:23:55;;;;;;;2.25;0.95;;;9.40;81.00;;;;;;5071513;28;20121;-55
2022/01/22 00:26:22;;;;;;;1.55;0.52;;;9.30;80.90;;;;;;5071381;28;20032;-57
2022/01/22 00:28:48;;;;;;;0.85;0.65;;;9.30;80.90;;;;;;5071530;28;20048;-55
2022/01/22 00:31:13;;;;;;;1.80;0.47;;;9.40;81.00;;;;;;5053132;28;20036;-56
2022/01/22 00:33:39;;;;;;;1.83;0.77;;;9.40;81.00;;;;;;5071273;28;20507;-55
2022/01/22 00:36:05;;;;;;;1.02;0.73;;;9.40;81.00;;;;;;5071270;28;20040;-56
2022/01/22 00:38:31;;;;;;;1.25;0.63;;;9.40;81.00;;;;;;5071381;28;20041;-52
2022/01/22 00:40:56;;;;;;;0.45;0.30;;;9.30;81.00;;;;;;5071417;28;20115;-57
2022/01/22 00:43:22;;;;;;;1.08;0.60;;;9.40;81.00;;;;;;5071443;28;20443;-53
2022/01/22 00:45:48;;;;;;;1.92;0.60;;;9.30;81.00;;;;;;5071885;28;20039;-56
2022/01/22 00:48:14;;;;;;;1.33;0.80;;;9.40;81.00;;;;;;5070575;28;20051;-56
2022/01/22 00:50:39;;;;;;;1.63;0.73;;;9.30;81.00;;;;;;5071437;28;20044;-54
2022/01/22 00:53:05;;;;;;;1.52;0.70;;;9.40;81.00;;;;;;5070937;28;20048;-58
2022/01/22 00:55:31;;;;;;;1.27;0.45;;;9.30;81.00;;;;;;5071249;28;20040;-56
2022/01/22 00:57:56;;;;;;;2.55;0.70;;;9.40;81.00;;;;;;5071013;28;20044;-57
2022/01/22 01:00:22;;;;;;;0.88;0.50;;;9.30;81.00;;;;;;5071143;28;20032;-56
2022/01/22 01:02:48;;;;;;;1.10;0.60;;;9.40;81.00;;;;;;5071105;28;20048;-56
2022/01/22 01:05:14;;;;;;;1.02;0.60;;;9.40;81.00;;;;;;5070606;28;20036;-54
2022/01/22 01:07:41;;;;;;;1.27;0.50;;;9.40;81.00;;;;;;5071086;28;20044;-56
2022/01/22 01:10:13;;;;;;;1.77;0.98;;;9.40;81.00;;;;;;5070181;28;20112;-57
2022/01/22 01:12:40;;;;;;;2.53;0.90;;;9.40;81.00;;;;;;5071022;28;20400;-57
2022/01/22 01:15:34;;;;;;;0.70;0.63;;;9.40;81.00;;;;;;5070817;28;20447;-56
2022/01/22 01:34:14;;;;;;;1.10;0.60;;;9.40;81.00;;;;;;5070871;28;20427;-56
2022/01/22 01:36:41;;;;;;;1.95;0.75;;;9.30;81.00;;;;;;5074144;28;20045;-55
2022/01/22 01:39:11;;;;;;;0.82;0.40;;;9.30;81.00;;;;;;5074710;28;20040;-56
2022/01/22 01:41:50;;;;;;;0.60;0.40;;;9.40;81.10;;;;;;5074498;28;20052;-56
2022/01/22 01:44:16;;;;;;;1.10;0.60;;;9.40;81.10;;;;;;5074247;28;20053;-56
2022/01/22 01:46:47;;;;;;;1.02;0.60;;;9.40;81.10;;;;;;5074640;28;20053;-54
2022/01/22 01:49:13;;;;;;;1.27;0.60;;;9.40;81.10;;;;;;5073936;28;20545;-57
2022/01/22 01:51:40;;;;;;;1.83;0.57;;;9.40;81.10;;;;;;5074016;28;20062;-54
2022/01/22 01:54:28;;;;;;;0.88;0.65;;;9.40;81.10;;;;;;5069520;28;20048;-54
2022/01/22 01:59:42;;;;;;;0.93;0.50;;;9.30;81.00;;;;;;5073940;28;20044;-57
2022/01/22 02:02:08;;;;;;;3.05;1.13;;;9.40;81.10;;;;;;5073679;28;20053;-53
2022/01/22 02:04:34;;;;;;;0.63;0.60;;;9.30;81.10;;;;;;5073993;28;20370;-55
2022/01/22 02:06:59;;;;;;;2.17;0.80;;;9.40;81.10;;;;;;5073856;28;20056;-57
2022/01/22 02:09:26;;;;;;;1.02;0.47;;;9.40;81.10;;;;;;5074256;28;20408;-57
2022/01/22 02:12:00;;;;;;;0.73;0.65;;;9.40;81.10;;;;;;5073815;28;20036;-57
2022/01/22 02:25:24;;;;;;;1.38;0.60;;;9.30;81.10;;;;;;5074042;28;20044;-58
2022/01/22 02:27:49;;;;;;;1.67;0.80;;;9.40;81.10;;;;;;5073879;28;20404;-57
2022/01/22 02:30:21;;;;;;;1.98;0.50;;;9.40;81.10;;;;;;5073419;28;20093;-55
2022/01/22 02:35:43;;;;;;;0.50;0.45;;;9.40;81.10;;;;;;5070737;28;20059;-56
2022/01/22 02:38:15;;;;;;;0.88;0.52;;;9.40;81.10;;;;;;5073402;28;20109;-56
2022/01/22 02:40:45;;;;;;;2.10;0.80;;;9.40;81.20;;;;;;5073963;28;20488;-56
2022/01/22 02:43:12;;;;;;;0.40;0.40;;;9.40;81.10;;;;;;5072869;28;20052;-55
2022/01/22 02:45:43;;;;;;;0.63;0.50;;;9.40;81.10;;;;;;5073309;28;20046;-58
2022/01/22 02:48:10;;;;;;;0.55;0.40;;;9.40;81.20;;;;;;5072213;28;20042;-57
2022/01/22 02:50:35;;;;;;;0.73;0.40;;;9.40;81.10;;;;;;5073742;28;20511;-55
2022/01/22 02:53:04;;;;;;;2.00;0.77;;;9.40;81.10;;;;;;5073256;28;20119;-56
2022/01/22 02:55:30;;;;;;;1.55;0.52;;;9.40;81.10;;;;;;5073118;28;20049;-57
2022/01/22 02:57:56;;;;;;;1.35;0.70;;;9.40;81.10;;;;;;5072934;28;20044;-56
2022/01/22 03:00:23;;;;;;;1.13;0.50;;;9.40;81.10;;;;;;5073076;28;20062;-57
2022/01/22 03:02:49;;;;;;;0.45;0.45;;;9.40;81.10;;;;;;5073533;28;20044;-57
2022/01/22 03:05:15;;;;;;;1.27;0.60;;;9.40;81.10;;;;;;5073012;28;20111;-56
2022/01/22 03:07:43;;;;;;;0.80;0.52;;;9.40;81.10;;;;;;5073132;28;20132;-57
2022/01/22 03:10:13;;;;;;;1.58;0.65;;;9.40;81.10;;;;;;5073095;28;20048;-53
2022/01/22 03:15:36;;;;;;;0.50;0.35;;;9.40;81.10;;;;;;5072418;28;20045;-56
2022/01/22 03:18:12;;;;;;;1.05;0.45;;;9.40;81.10;;;;;;5062744;28;20090;-56
2022/01/22 03:29:11;;;;;;;0.98;0.68;;;9.40;81.10;;;;;;5072447;28;20489;-53
2022/01/22 03:31:37;;;;;;;0.63;0.40;;;9.40;81.10;;;;;;5072902;28;20060;-56
2022/01/22 03:34:04;;;;;;;0.30;0.30;;;9.40;81.10;;;;;;5071697;28;20116;-56
2022/01/22 03:36:32;;;;;;;0.73;0.40;;;9.40;81.40;;;;;;5072488;28;20412;-55
2022/01/22 03:38:58;;;;;;;0.90;0.40;;;9.40;81.10;;;;;;5072200;28;20052;-56
2022/01/22 03:41:23;;;;;;;1.08;0.52;;;9.40;81.10;;;;;;5072696;28;20137;-56
2022/01/22 03:43:50;;;;;;;1.38;0.50;;;9.40;81.20;;;;;;5054083;28;20493;-56
2022/01/22 03:46:16;;;;;;;0.95;0.43;;;9.40;81.20;;;;;;5072029;28;20080;-57
2022/01/22 03:48:42;;;;;;;1.15;0.40;;;9.40;81.10;;;;;;5072294;28;20075;-56
2022/01/22 03:51:07;;;;;;;1.08;0.50;;;9.40;81.10;;;;;;5072058;28;20048;-55
2022/01/22 03:53:33;;;;;;;1.08;0.40;;;9.40;81.10;;;;;;5072248;28;20484;-54
2022/01/22 03:56:03;;;;;;;0.38;0.38;;;9.40;81.20;;;;;;5071916;28;20053;-56
2022/01/22 03:58:38;;;;;;;1.10;0.50;;;9.40;81.10;;;;;;5071457;28;20047;-54
2022/01/22 04:09:06;;;;;;;1.10;0.50;;;9.40;81.20;;;;;;5071798;28;20045;-56
2022/01/22 04:11:35;;;;;;;1.20;0.50;;;9.40;81.20;;;;;;5071829;28;20036;-56
2022/01/22 04:14:03;;;;;;;1.13;0.40;;;9.40;81.20;;;;;;5070961;28;20408;-51
2022/01/22 04:16:30;;;;;;;1.75;0.50;;;9.40;81.20;;;;;;5071895;28;20059;-51
2022/01/22 04:27:14;;;;;;;0.57;0.50;;;9.40;81.20;;;;;;5071133;28;20048;-55
2022/01/22 04:29:40;;;;;;;0.65;0.50;;;9.40;81.20;;;;;;5071892;28;20102;-56
2022/01/22 04:32:07;;;;;;;1.20;0.50;;;9.40;81.20;;;;;;5071082;28;20083;-54
2022/01/22 04:34:33;;;;;;;0.75;0.60;;;9.40;81.20;;;;;;5071141;28;20488;-55
2022/01/22 04:36:59;;;;;;;0.68;0.50;;;9.40;81.20;;;;;;5055122;28;20040;-57
2022/01/22 04:39:26;;;;;;;0.90;0.50;;;9.40;81.20;;;;;;5057280;28;20038;-55
2022/01/22 04:41:55;;;;;;;1.00;0.57;;;9.40;81.20;;;;;;5071468;28;20056;-56
2022/01/22 04:44:24;;;;;;;0.55;0.30;;;9.40;81.20;;;;;;5071225;28;20049;-54
2022/01/22 04:46:57;;;;;;;1.45;0.50;;;9.40;81.10;;;;;;5071453;28;20055;-55
2022/01/22 04:57:18;;;;;;;0.60;0.32;;;9.40;81.10;;;;;;5070811;28;20048;-56
2022/01/22 04:59:44;;;;;;;0.63;0.40;;;9.40;81.20;;;;;;5070764;28;20051;-57
2022/01/22 05:02:10;;;;;;;0.30;0.30;;;9.50;81.20;;;;;;5070509;28;20063;-55
2022/01/22 05:04:36;;;;;;;0.75;0.50;;;9.40;81.20;;;;;;5071314;28;20463;-56
2022/01/22 05:07:02;;;;;;;0.50;0.30;;;9.40;81.20;;;;;;5070903;28;20044;-55
2022/01/22 05:09:28;;;;;;;0.98;0.50;;;9.40;81.20;;;;;;5070461;28;20373;-57
2022/01/22 05:11:54;;;;;;;0.52;0.40;;;9.40;81.20;;;;;;5071359;28;20040;-52
2022/01/22 05:14:19;;;;;;;0.47;0.45;;;9.40;81.20;;;;;;5070646;28;20048;-53
2022/01/22 05:16:45;;;;;;;1.55;0.88;;;9.40;81.20;;;;;;5070685;28;20045;-53
2022/01/22 05:19:20;;;;;;;1.40;0.30;;;9.40;81.20;;;;;;5070696;28;20059;-55
2022/01/22 05:21:48;;;;;;;;;;;9.40;81.20;;;;;;5071498;28;20040;-55
2022/01/22 05:24:18;;;;;;;0.30;0.30;;;9.40;81.10;;;;;;5070355;28;19916;-52
2022/01/22 05:32:23;;;;;;;0.75;0.40;;;9.40;81.20;;;;;;5070777;28;20059;-57
2022/01/22 05:37:14;;;;;;;0.82;0.40;;;9.40;81.20;;;;;;5070997;28;20052;-57
2022/01/22 05:39:40;;;;;;;0.40;0.40;;;9.40;81.20;;;;;;5070694;28;20447;-55
2022/01/22 05:42:09;;;;;;;0.40;0.40;;;9.40;81.20;;;;;;5070726;28;20045;-54
2022/01/22 05:44:35;;;;;;;0.63;0.40;;;9.40;81.20;;;;;;5070609;28;20115;-53
2022/01/22 05:47:05;;;;;;;0.30;0.30;;;9.40;81.20;;;;;;5070508;28;20045;-56
2022/01/22 05:49:39;;;;;;;0.57;0.30;;;9.40;81.20;;;;;;5070636;28;20082;-54
2022/01/22 05:52:07;;;;;;;0.93;0.50;;;9.40;81.20;;;;;;5069642;28;20049;-56
2022/01/22 05:59:49;;;;;;;0.38;0.35;;;9.40;81.20;;;;;;5070873;28;20453;-55
2022/01/22 06:02:16;;;;;;;0.93;0.50;;;9.40;81.20;;;;;;5069505;28;20140;-55
2022/01/22 06:04:43;;;;;;;0.32;0.32;;;9.40;81.20;;;;;;5070669;28;20049;-56
2022/01/22 06:07:10;;;;;;;1.08;0.55;;;9.40;81.20;;;;;;5070181;28;20055;-56
2022/01/22 06:09:39;;;;;;;0.28;0.22;;;9.40;81.20;;;;;;5070490;28;20045;-54
2022/01/22 06:14:32;;;;;;;0.45;0.40;;;9.40;81.20;;;;;;5070496;28;20105;-56
2022/01/22 06:16:57;;;;;;;1.83;0.60;;;9.40;81.20;;;;;;5070468;28;20123;-55
2022/01/22 06:19:23;;;;;;;0.52;0.50;;;9.40;81.20;;;;;;5070640;28;20511;-55
2022/01/22 06:21:51;;;;;;;0.90;0.43;;;9.40;81.40;;;;;;5072159;28;20044;-56
2022/01/22 06:24:17;;;;;;;0.73;0.50;;;9.40;81.20;;;;;;5073761;28;20401;-55
2022/01/22 06:26:43;;;;;;;0.50;0.40;;;9.40;81.20;;;;;;5056035;28;20088;-53
2022/01/22 06:29:09;;;;;;;0.80;0.32;;;9.40;81.20;;;;;;5073618;28;20079;-55
2022/01/22 06:31:35;;;;;;;0.47;0.40;;;9.40;81.20;;;;;;5073733;28;20033;-56
2022/01/22 06:34:00;;;;;;;0.63;0.40;;;9.40;81.20;;;;;;5073521;28;20051;-55
2022/01/22 06:36:27;;;;;;;0.43;0.30;;;9.40;81.20;;;;;;5073805;28;20393;-55
2022/01/22 06:38:57;;;;;;;1.33;0.50;;;9.40;81.20;;;;;;5074063;28;20056;-54
2022/01/22 06:44:07;;;;;;;0.63;0.63;;;9.50;81.20;;;;;;5073875;28;20041;-56
2022/01/22 06:46:33;;;;;;;0.50;0.40;;;9.50;81.20;;;;;;5073441;28;20442;-57
2022/01/22 06:48:59;;;;;;;0.55;0.40;;;9.40;81.20;;;;;;5072442;28;20124;-57
2022/01/22 06:51:27;;;;;;;0.40;0.40;;;9.40;81.20;;;;;;5073472;28;20132;-54
2022/01/22 06:53:53;;;;;;;0.43;0.35;;;9.40;81.20;;;;;;5072879;28;20129;-57
2022/01/22 06:56:21;;;;;;;0.30;0.30;;;9.40;81.20;;;;;;5054461;28;20052;-56
2022/01/22 06:58:48;;;;;;;1.45;0.32;;;9.40;81.20;;;;;;5073487;28;20182;-56
2022/01/22 07:01:14;;;;;;;0.90;0.60;;;9.40;81.20;;;;;;5072626;28;20044;-57
2022/01/22 07:03:40;;;;;;;0.50;0.38;;;9.40;81.20;;;;;;5073173;28;20082;-53
2022/01/22 07:06:05;;;;;;;0.47;0.47;;;9.40;81.20;;;;;;5073133;28;20075;-56
2022/01/22 07:08:31;;;;;;;0.57;0.30;;;9.40;81.20;;;;;;5073556;28;20040;-57
2022/01/22 07:10:57;;;;;;;1.42;0.40;;;9.40;81.20;;;;;;5072972;28;20472;-56
2022/01/22 07:13:22;;;;;;;0.90;0.40;;;9.40;81.20;;;;;;5072765;28;20048;-56
2022/01/22 07:15:48;;;;;;;1.58;0.40;;;9.40;81.20;;;;;;5067820;28;20393;-57
2022/01/22 07:18:14;;;;;;;0.22;0.20;;;9.40;81.20;;;;;;5054370;28;20048;-55
2022/01/22 07:20:44;;;;;;;0.47;0.47;;;9.50;81.20;;;;;;5062685;28;20044;-56
2022/01/22 07:23:17;;;;;;;0.30;0.30;;;9.40;81.20;;;;;;5072218;28;20570;-54
2022/01/22 07:25:44;;;;;;;0.50;0.40;;;9.50;81.20;;;;;;5072540;28;20127;-56
2022/01/22 07:28:11;;;;;;;0.45;0.45;;;9.40;81.20;;;;;;5071934;28;20052;-56
2022/01/22 07:30:39;;;;;;;0.90;0.40;;;9.40;81.20;;;;;;5072308;28;20439;-56
2022/01/22 07:33:04;;;;;;;0.68;0.40;;;9.40;81.80;;;;;;5070342;28;20578;-57
2022/01/22 07:35:33;;;;;;;0.40;0.40;;;9.40;81.20;;;;;;5071507;28;20044;-54
2022/01/22 07:38:02;;;;;;;1.02;0.57;;;9.40;81.20;;;;;;5071875;28;20428;-57
2022/01/22 07:40:29;;;;;;;0.32;0.32;;;9.40;81.20;;;;;;5072724;28;20043;-58
2022/01/22 07:42:55;;;;;;;0.60;0.40;;;9.40;81.20;;;;;;5072515;28;20044;-55
2022/01/22 07:45:21;;;;;;;0.63;0.40;;;9.50;81.30;;;;;;5072208;28;20040;-57
2022/01/22 07:47:47;;;;;;;0.63;0.50;;;9.40;81.20;;;;;;5072414;28;20106;-55
2022/01/22 07:50:12;;;;;;;0.75;0.52;;;9.50;81.20;;;;;;5071330;28;20388;-58
2022/01/22 07:52:38;;;;;;;1.77;0.50;;;9.40;81.20;;;;;;5071447;28;20119;-57
2022/01/22 07:55:06;;;;;;;0.30;0.30;;;9.40;81.20;;;;;;5072326;28;20068;-55
2022/01/22 07:57:32;;;;;;;0.57;0.43;;;9.50;81.20;;;;;;5071971;28;20048;-58
2022/01/22 07:59:58;;;;;;;0.75;0.30;;;9.40;81.20;;;;;;5072138;28;20049;-56
2022/01/22 08:02:23;;;;;;;0.35;0.35;;;9.40;81.20;;;;;;5072164;28;20061;-54
2022/01/22 08:04:49;;;;;;;0.88;0.50;;;9.50;81.20;;;;;;5072015;28;20047;-56
2022/01/22 08:07:16;;;;;;;0.57;0.32;;;9.50;81.20;;;;;;5052732;28;20059;-58
2022/01/22 08:09:42;;;;;;;0.82;0.38;;;9.40;81.20;;;;;;5072086;28;20040;-55
2022/01/22 08:12:08;;;;;;;1.02;0.40;;;9.50;81.20;;;;;;5071692;28;20044;-55
2022/01/22 08:14:34;;;;;;;0.40;0.40;;;9.50;81.20;;;;;;5072184;28;20370;-57
2022/01/22 08:16:59;;;;;;;0.45;0.30;;;9.50;81.20;;;;;;5071350;28;20040;-56
2022/01/22 08:19:25;;;;;;;0.30;0.30;;;9.50;81.20;;;;;;5053631;28;20048;-57
2022/01/22 08:21:51;;;;;;;0.35;0.35;;;9.40;81.20;;;;;;5071452;28;20045;-56
2022/01/22 08:24:18;;;;;;;0.90;0.30;;;9.50;81.20;;;;;;5071701;28;20040;-57
2022/01/22 08:26:52;;;;;;;1.38;0.40;;;9.50;81.20;;;;;;5072300;28;20461;-56
2022/01/22 08:29:18;;;;;;;0.30;0.30;;;9.40;81.20;;;;;;5071595;28;20047;-55
2022/01/22 08:31:51;;;;;;;0.50;0.40;;;9.50;81.20;;;;;;5071922;28;20040;-58
2022/01/22 08:37:02;;;;;;;0.30;0.30;;;9.40;81.20;;;;;;5065761;28;20072;-56
2022/01/22 08:39:28;;;;;;;0.63;0.30;;;9.40;81.20;;;;;;5070754;28;20095;-54
2022/01/22 08:41:54;;;;;;;0.55;0.40;;;9.40;81.20;;;;;;5071568;28;20044;-56
2022/01/22 08:44:19;;;;;;;2.55;0.55;;;9.50;81.20;;;;;;5070105;28;20059;-57
2022/01/22 08:46:45;;;;;;;0.50;0.43;;;9.50;81.20;;;;;;5071371;28;20044;-56
2022/01/22 08:49:12;;;;;;;0.77;0.45;;;9.50;81.20;;;;;;5071012;28;20089;-55
2022/01/22 08:51:38;;;;;;;0.30;0.30;;;9.40;81.20;;;;;;5070069;28;20048;-55
2022/01/22 08:54:05;;;;;;;0.32;0.30;;;9.50;81.20;;;;;;5070641;28;20049;-57
2022/01/22 08:56:31;;;;;;;0.70;0.30;;;9.50;81.30;;;;;;5070711;28;20041;-55
2022/01/22 08:58:57;;;;;;;0.90;0.30;;;9.40;81.20;;;;;;5071609;28;21474;-56
2022/01/22 09:01:23;;;;;;;1.55;0.50;;;9.40;81.20;;;;;;5053081;28;20053;-58
2022/01/22 09:03:50;;;;;;;0.60;0.50;;;9.40;81.20;;;;;;5071517;28;20097;-55
2022/01/22 09:06:17;;;;;;;0.40;0.40;;;9.50;81.20;;;;;;5070579;28;20044;-56
2022/01/22 09:08:45;;;;;;;0.55;0.30;;;9.50;81.20;;;;;;5071416;28;20057;-56
2022/01/22 09:11:11;;;;;;;0.40;0.40;;;9.40;81.20;;;;;;5070520;28;20484;-56
2022/01/22 09:13:37;;;;;;;0.40;0.40;;;9.50;81.30;;;;;;5071090;28;20089;-53
2022/01/22 09:16:04;;;;;;;0.82;0.50;;;9.50;81.20;;;;;;5070697;28;20127;-55
2022/01/22 09:18:29;;;;;;;0.30;0.30;;;9.40;81.30;;;;;;5071124;28;20040;-58
2022/01/22 09:21:02;;;;;;;0.70;0.60;;;9.50;81.20;;;;;;5070468;28;20067;-55
2022/01/22 09:23:29;;;;;;;0.30;0.30;;;9.50;81.30;;;;;;5070401;28;20045;-54
2022/01/22 09:25:56;;;;;;;0.45;0.30;;;9.50;81.30;;;;;;5071049;28;20389;-56
2022/01/22 09:28:22;;;;;;;0.68;0.47;;;9.50;81.30;;;;;;5071146;28;20036;-55
2022/01/22 09:30:48;;;;;;;0.75;0.40;;;9.50;81.30;;;;;;5071049;28;20439;-50
2022/01/22 09:33:14;;;;;;;0.93;0.40;;;9.50;81.20;;;;;;5070499;28;20079;-56
2022/01/22 09:35:40;;;;;;;1.60;0.60;;;9.40;81.20;;;;;;5070543;28;20037;-52
2022/01/22 09:38:06;;;;;;;0.52;0.50;;;9.50;81.30;;;;;;5070123;28;20052;-51
2022/01/22 09:40:32;;;;;;;0.30;0.30;;;9.50;81.30;;;;;;5070764;28;20044;-55
2022/01/22 09:42:59;;;;;;;0.30;0.30;;;9.50;81.30;;;;;;5070273;28;20043;-57
2022/01/22 09:45:27;;;;;;;1.05;0.30;;;9.50;81.30;;;;;;5070923;28;20044;-57
2022/01/22 09:47:55;;;;;;;0.63;0.43;;;9.50;81.30;;;;;;5070256;28;20041;-57
2022/01/22 09:50:23;;;;;;;1.60;0.52;;;9.50;81.30;;;;;;5070128;28;20052;-57
2022/01/22 09:52:50;;;;;;;0.30;0.30;;;9.50;81.30;;;;;;5070365;28;20131;-57
2022/01/22 09:55:16;;;;;;;0.47;0.40;;;9.50;81.30;;;;;;5067506;28;20041;-53
2022/01/22 09:57:44;;;;;;;0.55;0.52;;;9.50;81.30;;;;;;5060476;28;20056;-55
2022/01/22 10:00:13;;;;;;;1.40;0.57;;;9.50;81.30;;;;;;5054740;28;20068;-57
2022/01/22 10:02:42;;;;;;;0.75;0.30;;;9.50;81.30;;;;;;5079933;28;20052;-56
2022/01/22 10:05:31;;;;;;;0.73;0.40;;;9.50;81.30;;;;;;5072977;28;20041;-58
2022/01/22 10:08:28;;;;;;;1.38;0.57;;;9.50;81.20;;;;;;5073296;28;20049;-55
2022/01/22 10:10:55;;;;;;;0.93;0.60;;;9.50;81.30;;;;;;5073514;28;20045;-55
2022/01/22 10:13:41;;;;;;;2.60;1.10;;;9.50;81.30;;;;;;5072056;28;20045;-55
2022/01/22 10:16:19;;;;;;;1.23;0.60;;;9.50;81.20;;;;;;5057523;28;20485;-56
2022/01/22 10:18:46;;;;;;;1.15;0.50;;;9.50;81.30;;;;;;5073553;28;20581;-54
2022/01/22 10:21:15;;;;;;;0.95;0.55;;;9.50;81.30;;;;;;5072945;28;20036;-52
2022/01/22 10:23:42;;;;;;;1.00;0.47;;;9.50;81.30;;;;;;5072413;28;20524;-53
2022/01/22 10:26:12;;;;;;;1.08;0.50;;;9.50;81.30;;;;;;5072613;28;20078;-56
2022/01/22 10:28:48;;;;;;;0.73;0.60;;;9.50;81.30;;;;;;5072909;28;20036;-57
2022/01/22 10:31:24;;;;;;;2.00;0.60;;;9.50;81.30;;;;;;5053950;28;20060;-55
2022/01/22 10:34:10;;;;;;;1.60;0.43;;;9.50;81.30;;;;;;5069117;28;20063;-54
2022/01/22 10:36:36;;;;;;;1.15;0.47;;;9.50;81.30;;;;;;5069449;28;20052;-55
2022/01/22 10:39:09;;;;;;;0.57;0.32;;;9.50;81.30;;;;;;5068242;28;20672;-55
2022/01/22 10:41:39;;;;;;;1.23;0.75;;;9.50;81.40;;;;;;5068389;28;20053;-55
2022/01/22 10:44:09;;;;;;;0.95;0.50;;;9.50;81.70;;;;;;5068982;28;20407;-56
2022/01/22 10:46:45;;;;;;;1.05;0.40;;;9.50;81.40;;;;;;5068589;28;20066;-56
2022/01/22 10:49:26;;;;;;;0.52;0.40;;;9.50;81.40;;;;;;5068580;28;20099;-55
2022/01/22 10:51:59;;;;;;;0.40;0.30;;;9.50;81.30;;;;;;5078387;28;20048;-56
2022/01/22 10:54:29;;;;;;;1.23;0.52;;;9.50;81.40;;;;;;5068933;28;20546;-56
2022/01/22 10:57:13;;;;;;;0.52;0.40;;;9.50;81.40;;;;;;5068338;28;20098;-55
2022/01/22 10:59:53;;;;;;;1.55;0.40;;;9.50;81.30;;;;;;5068980;28;20500;-56
2022/01/22 11:02:36;;;;;;;0.47;0.38;;;9.50;81.40;;;;;;5066965;28;20408;-56
2022/01/22 11:05:03;;;;;;;0.65;0.65;;;9.50;81.30;;;;;;5068546;28;20044;-55
2022/01/22 11:07:29;;;;;;;1.08;0.52;;;9.50;81.40;;;;;;5067959;28;20056;-56
2022/01/22 11:09:55;;;;;;;0.43;0.35;;;9.50;81.40;;;;;;5068819;28;20496;-55
2022/01/22 11:12:20;;;;;;;0.40;0.40;;;9.50;81.40;;;;;;5067555;28;20493;-56
2022/01/22 11:14:46;;;;;;;0.98;0.40;;;9.50;81.40;;;;;;5068351;28;20045;-55
2022/01/22 11:17:12;;;;;;;0.93;0.45;;;9.50;81.40;;;;;;5068109;28;20198;-52
2022/01/22 11:19:43;;;;;;;0.73;0.40;;;9.50;81.40;;;;;;5065513;28;20036;-55
2022/01/22 11:22:14;;;;;;;8.02;1.92;;;9.50;81.40;;;;;;5069805;28;20036;-58
2022/01/22 11:24:49;;;;;;;4.80;1.50;;;9.50;81.90;;;;;;5071595;28;20044;-58
2022/01/22 11:27:17;;;;;;;4.28;0.98;;;9.40;82.00;;;;;;5071924;28;20070;-57
2022/01/22 11:30:00;;;;;;;4.88;1.38;;;9.50;82.20;;;;;;5072457;28;20197;-58
2022/01/22 11:32:29;;;;;;;3.40;1.00;;;9.50;82.20;;;;;;5072550;28;20048;-57
2022/01/22 11:34:59;;;;;;;4.47;1.52;;;9.40;82.10;;;;;;5073040;28;20082;-58
2022/01/22 11:37:39;;;;;;;3.05;1.27;;;9.40;82.20;;;;;;5070212;28;20040;-56
2022/01/22 11:40:20;;;;;;;2.90;1.02;;;9.40;82.10;;;;;;5069588;28;20037;-58
2022/01/22 11:43:08;;;;;;;5.03;1.60;;;9.50;82.10;;;;;;5072840;28;20090;-58
2022/01/22 11:45:39;;;;;;;1.98;0.95;;;9.50;82.00;;;;;;5072541;28;20032;-57
2022/01/22 11:48:20;;;;;;;4.70;2.40;;;9.50;82.00;;;;;;5072215;28;20048;-58
2022/01/22 11:50:49;;;;;;;8.57;2.35;;;9.50;81.90;;;;;;5072323;28;20090;-57
2022/01/22 11:53:34;;;;;;;3.65;1.60;;;9.50;82.40;;;;;;5071485;28;20048;-59
2022/01/22 11:56:24;;;;;;;4.65;1.88;;;9.50;82.60;;;;;;5071715;28;20047;-57
2022/01/22 11:58:56;;;;;;;2.13;1.10;;;9.40;82.90;;;;;;5054911;28;20056;-55
2022/01/22 12:01:43;;;;;;;2.88;1.67;;;9.40;83.70;;;;;;5053648;28;20102;-54
2022/01/22 12:04:11;;;;;;;3.45;1.10;;;9.40;83.20;;;;;;5071931;28;20051;-56
2022/01/22 12:06:57;;;;;;;1.75;1.20;;;9.40;83.40;;;;;;5072482;28;20036;-59
2022/01/22 12:09:26;;;;;;;3.10;1.25;;;9.40;83.50;;;;;;5071796;28;20045;-57
2022/01/22 12:14:57;;;;;;;4.50;1.38;;;9.40;83.70;;;;;;5072223;28;20084;-59
2022/01/22 12:17:54;;;;;;;2.88;1.50;;;9.40;83.70;;;;;;5072166;28;20055;-58
2022/01/22 12:23:12;;;;;;;5.43;1.48;;;9.50;83.70;;;;;;5071290;28;20055;-55
2022/01/22 12:25:37;;;;;;;3.53;1.30;;;9.40;83.60;;;;;;5071122;28;20480;-54
2022/01/22 12:28:08;;;;;;;2.25;1.23;;;9.40;83.60;;;;;;5071224;28;20056;-58
2022/01/22 12:30:38;;;;;;;3.05;1.33;;;9.50;83.60;;;;;;5071674;28;20041;-51
2022/01/22 12:33:07;;;;;;;2.67;1.27;;;9.40;83.60;;;;;;5071020;28;20051;-58
2022/01/22 12:35:47;;;;;;;2.65;1.50;;;9.50;83.60;;;;;;5071907;28;20123;-57
2022/01/22 12:41:00;;;;;;;2.67;1.30;;;9.40;83.60;;;;;;5071697;28;20048;-58
2022/01/22 12:43:28;;;;;;;3.63;1.60;;;9.50;83.60;;;;;;5064870;28;20048;-58
2022/01/22 12:45:59;;;;;;;2.35;1.10;;;9.60;83.70;;;;;;5052893;28;20044;-56
2022/01/22 12:48:28;;;;;;;3.00;1.38;;;9.50;83.60;;;;;;5051642;28;20041;-58
2022/01/22 12:51:04;;;;;;;2.78;1.40;;;9.40;83.60;;;;;;5050971;28;20088;-59
2022/01/22 12:53:31;;;;;;;2.00;0.93;;;9.50;83.60;;;;;;5063421;28;20047;-59
2022/01/22 12:58:27;;;;;;;3.38;1.40;;;9.50;83.60;;;;;;5071866;28;20082;-55
2022/01/22 13:01:08;;;;;;;1.63;1.00;;;9.50;83.60;;;;;;5070952;28;20115;-58
2022/01/22 13:03:42;;;;;;;2.10;1.20;;;9.50;83.60;;;;;;5071020;28;20068;-59
2022/01/22 13:06:08;;;;;;;3.97;1.50;;;9.50;83.60;;;;;;5070861;28;20044;-58
2022/01/22 13:08:34;;;;;;;1.77;1.08;;;9.50;83.50;;;;;;5052564;28;20053;-58
2022/01/22 13:11:03;;;;;;;2.33;1.17;;;9.50;83.50;;;;;;5071109;28;20086;-54
2022/01/22 13:13:30;;;;;;;2.72;1.35;;;9.50;83.50;;;;;;5070900;28;20051;-58
2022/01/22 13:16:16;;;;;;;3.00;1.08;;;9.50;83.40;;;;;;5071499;28;20032;-57
2022/01/22 13:18:56;;;;;;;1.98;1.00;;;9.50;83.50;;;;;;5071547;28;20051;-56
2022/01/22 13:21:23;;;;;;;3.35;1.10;;;9.50;83.40;;;;;;5069900;28;20044;-60
2022/01/22 13:24:25;;;;;;;2.22;1.00;;;9.50;83.40;;;;;;5070600;28;20072;-57
2022/01/22 13:27:07;;;;;;;3.08;1.65;;;9.50;83.50;;;;;;4982109;28;20116;-59
2022/01/22 13:29:35;;;;;;;3.08;1.10;;;9.50;83.40;;;;;;4980748;28;20176;-56
2022/01/22 13:32:19;;;;;;;2.90;1.52;;;9.50;83.40;;;;;;4984692;28;20657;-60
2022/01/22 13:37:57;;;;;;;1.40;0.90;;;9.50;83.30;;;;;;4987174;28;20046;-60
2022/01/22 13:48:33;;;;;;;2.53;1.02;;;9.50;83.30;;;;;;4992712;28;20925;-59
2022/01/22 13:51:01;;;;;;;0.95;0.80;;;9.50;83.30;;;;;;4993925;28;20051;-58
2022/01/22 13:53:27;;;;;;;1.90;0.80;;;9.50;83.30;;;;;;5000751;28;20038;-59
2022/01/22 13:56:11;;;;;;;2.42;1.20;;;9.50;83.20;;;;;;4992697;28;20064;-59
2022/01/22 13:58:37;;;;;;;0.98;0.80;;;9.50;83.20;;;;;;4991089;28;20050;-58
2022/01/22 14:01:31;;;;;;;2.53;1.10;;;9.50;83.20;;;;;;4988525;28;20050;-58
2022/01/22 14:04:08;;;;;;;2.05;1.13;;;9.60;83.30;;;;;;5057158;28;20579;-60
2022/01/22 14:06:34;;;;;;;1.05;0.70;;;9.50;83.20;;;;;;5070847;28;20098;-56
2022/01/22 14:09:31;;;;;;;0.90;0.80;;;9.50;83.20;;;;;;5070903;28;20049;-58
2022/01/22 14:12:14;;;;;;;1.85;0.82;;;9.60;83.30;;;;;;4988801;28;20282;-55
2022/01/22 14:15:06;;;;;;;1.88;0.80;;;9.50;83.10;;;;;;4988897;28;20165;-58
2022/01/22 14:17:38;;;;;;;1.88;0.90;;;9.50;83.10;;;;;;4988392;28;20130;-58
2022/01/22 14:20:11;;;;;;;1.55;1.00;;;9.50;83.10;;;;;;4988301;28;20050;-54
2022/01/22 14:23:10;;;;;;;2.05;0.95;;;9.50;83.10;;;;;;4988650;28;20062;-59
2022/01/22 14:25:55;;;;;;;1.00;0.75;;;9.50;83.20;;;;;;4874342;29;20518;-57
2022/01/22 14:28:42;;;;;;;1.75;0.73;;;9.50;83.10;;;;;;4873073;29;20518;-57
2022/01/22 14:31:32;;;;;;;2.33;0.80;;;9.50;83.10;;;;;;4858400;29;20098;-60
2022/01/22 14:34:06;;;;;;;1.35;0.90;;;9.50;83.10;;;;;;4873750;29;20214;-46
2022/01/22 14:36:52;;;;;;;2.03;1.05;;;9.50;83.00;;;;;;4874203;29;20092;-58
2022/01/22 14:44:57;;;;;;;1.20;0.90;;;9.50;83.00;;;;;;4855251;29;20053;-58
2022/01/22 14:47:27;;;;;;;2.55;1.08;;;9.50;83.10;;;;;;4884956;29;20167;-54
2022/01/22 14:49:55;;;;;;;1.67;0.90;;;9.50;83.00;;;;;;4911330;29;20473;-58
2022/01/22 14:52:25;;;;;;;2.13;1.00;;;9.50;83.00;;;;;;4910372;29;20112;-58
2022/01/22 14:54:52;;;;;;;1.08;0.95;;;9.60;83.00;;;;;;4910880;29;20760;-59
2022/01/22 14:57:24;;;;;;;0.82;0.68;;;9.50;83.00;;;;;;4906395;29;20079;-59
2022/01/22 14:59:50;;;;;;;1.17;0.80;;;9.50;83.00;;;;;;4910685;29;20841;-60
2022/01/22 15:02:16;;;;;;;1.75;0.63;;;9.60;83.00;;;;;;4965117;28;20050;-59
2022/01/22 15:04:43;;;;;;;1.65;0.80;;;9.60;83.00;;;;;;4963768;28;20503;-56
2022/01/22 15:07:11;;;;;;;0.63;0.60;;;9.60;83.00;;;;;;4976277;28;20055;-58
2022/01/22 15:09:39;;;;;;;1.35;0.57;;;9.50;82.90;;;;;;4976655;28;20042;-56
2022/01/22 15:12:07;;;;;;;0.60;0.60;;;9.70;83.70;;;;;;4978027;28;20042;-55